Time;durP1;ratioP1;P1;durP2;ratioP2;P2;SDS_P1;SDS_P2;PMS_P1;PMS_P2;Temp;Humidity;BMP_temperature;BMP_pressure;BME280_temperature;BME280_humidity;BME280_pressure;Samples;Min_cycle;Max_cycle;Signal;HPM_P1;HPM_P2
2022/06/03 00:02:22;;;;;;;1.15;0.77;;;23.00;47.30;;;;;;5041457;28;20054;-64
2022/06/03 00:05:16;;;;;;;1.13;0.90;;;23.00;47.30;;;;;;5058926;28;20110;-60
2022/06/03 00:07:42;;;;;;;1.17;0.80;;;22.90;47.20;;;;;;5056834;28;20025;-61
2022/06/03 00:10:29;;;;;;;1.45;0.80;;;22.90;47.20;;;;;;5058912;28;20020;-63
2022/06/03 00:13:33;;;;;;;0.80;0.70;;;22.90;47.20;;;;;;5058290;28;20524;-63
2022/06/03 00:16:09;;;;;;;1.27;0.80;;;22.90;47.20;;;;;;5057968;28;20032;-58
2022/06/03 00:19:05;;;;;;;0.80;0.70;;;22.90;47.20;;;;;;5058037;28;20039;-60
2022/06/03 00:21:51;;;;;;;0.60;0.60;;;22.90;47.20;;;;;;5056430;28;20036;-64
2022/06/03 00:24:26;;;;;;;1.10;0.88;;;23.00;47.30;;;;;;5056232;28;20035;-63
2022/06/03 00:27:15;;;;;;;0.80;0.75;;;23.00;47.20;;;;;;5059329;28;20052;-64
2022/06/03 00:29:49;;;;;;;0.90;0.70;;;22.90;47.20;;;;;;5059856;28;20082;-59
2022/06/03 00:32:39;;;;;;;0.85;0.75;;;22.90;47.20;;;;;;5057083;28;20043;-60
2022/06/03 00:35:13;;;;;;;;;;;22.90;47.20;;;;;;5058101;28;20039;-61
2022/06/03 00:37:53;;;;;;;1.33;0.85;;;22.90;47.70;;;;;;5055944;28;19935;-61
2022/06/03 00:40:38;;;;;;;1.20;0.80;;;22.90;47.20;;;;;;5057469;28;20708;-59
2022/06/03 00:43:25;;;;;;;1.05;0.70;;;22.90;47.20;;;;;;5057188;28;20437;-63
2022/06/03 00:46:09;;;;;;;1.13;0.80;;;22.90;47.20;;;;;;5057837;28;20366;-59
2022/06/03 00:48:40;;;;;;;1.15;0.90;;;22.90;47.20;;;;;;5057052;28;20028;-59
2022/06/03 00:51:11;;;;;;;1.45;0.90;;;22.90;47.20;;;;;;5056360;28;20035;-62
2022/06/03 00:53:36;;;;;;;1.35;0.75;;;22.90;47.20;;;;;;5056112;28;20101;-63
2022/06/03 00:56:08;;;;;;;0.63;0.60;;;22.90;47.20;;;;;;5055603;28;20044;-60
2022/06/03 00:59:02;;;;;;;0.98;0.80;;;22.90;47.20;;;;;;5056624;28;20120;-62
2022/06/03 01:01:45;;;;;;;0.90;0.80;;;22.90;47.20;;;;;;5055248;28;20447;-61
2022/06/03 01:04:45;;;;;;;0.82;0.70;;;22.90;47.20;;;;;;5056146;28;20056;-64
2022/06/03 01:07:21;;;;;;;0.65;0.65;;;22.90;47.20;;;;;;5055354;28;20036;-62
2022/06/03 01:10:31;;;;;;;1.20;0.80;;;22.90;47.20;;;;;;5054409;28;20487;-64
2022/06/03 01:13:13;;;;;;;0.73;0.70;;;22.90;47.20;;;;;;5056424;28;20025;-64
2022/06/03 01:16:10;;;;;;;0.90;0.77;;;22.90;47.20;;;;;;5056441;28;20089;-60
2022/06/03 01:18:36;;;;;;;1.85;0.70;;;22.90;47.20;;;;;;5016942;28;20045;-64
2022/06/03 01:21:18;;;;;;;0.93;0.73;;;22.90;47.20;;;;;;5055275;28;20078;-59
2022/06/03 01:24:07;;;;;;;1.25;0.90;;;22.90;47.20;;;;;;5054825;28;20119;-62
2022/06/03 01:27:06;;;;;;;1.33;0.80;;;22.90;47.20;;;;;;5056236;28;20064;-64
2022/06/03 01:29:31;;;;;;;1.80;0.80;;;22.90;47.20;;;;;;5055463;28;20048;-63
2022/06/03 01:32:21;;;;;;;0.90;0.70;;;22.90;47.20;;;;;;5055565;28;20352;-59
2022/06/03 01:35:26;;;;;;;0.85;0.80;;;22.90;47.20;;;;;;5056635;28;20028;-63
2022/06/03 01:38:08;;;;;;;1.10;0.80;;;22.90;47.20;;;;;;5054573;28;20376;-63
2022/06/03 01:40:52;;;;;;;0.73;0.73;;;22.90;47.10;;;;;;5055156;28;20452;-64
2022/06/03 01:43:35;;;;;;;1.23;0.82;;;22.90;47.10;;;;;;5055056;28;20758;-58
2022/06/03 01:46:25;;;;;;;0.80;0.80;;;22.90;47.10;;;;;;5057077;28;20032;-61
2022/06/03 01:48:57;;;;;;;1.33;0.68;;;22.80;47.10;;;;;;5055571;28;20396;-60
2022/06/03 01:51:59;;;;;;;0.70;0.70;;;22.80;47.10;;;;;;5053587;28;20035;-63
2022/06/03 01:54:56;;;;;;;0.82;0.75;;;22.80;47.10;;;;;;5016306;28;1086253;-59
2022/06/03 01:57:36;;;;;;;1.13;0.85;;;22.80;47.10;;;;;;5056603;28;20024;-58
2022/06/03 02:00:08;;;;;;;0.70;0.70;;;22.80;47.10;;;;;;5056782;28;20030;-62
2022/06/03 02:03:31;;;;;;;1.73;0.88;;;22.90;47.20;;;;;;5056347;28;20127;-59
2022/06/03 02:06:09;;;;;;;0.63;0.63;;;22.90;47.20;;;;;;5023888;28;20487;-60
2022/06/03 02:09:20;;;;;;;0.70;0.70;;;22.80;47.10;;;;;;5056605;28;20040;-64
2022/06/03 02:12:02;;;;;;;1.00;0.80;;;22.80;47.10;;;;;;5056615;28;20151;-58
2022/06/03 02:14:40;;;;;;;0.55;0.55;;;22.80;47.00;;;;;;5054414;28;20048;-64
2022/06/03 02:17:17;;;;;;;0.93;0.70;;;22.90;47.10;;;;;;5056840;28;20189;-61
2022/06/03 02:20:20;;;;;;;0.80;0.70;;;22.80;47.00;;;;;;5057120;28;20037;-65
2022/06/03 02:22:52;;;;;;;0.77;0.70;;;22.80;47.00;;;;;;5053179;28;20381;-63
2022/06/03 02:25:37;;;;;;;0.77;0.70;;;22.80;47.00;;;;;;5054351;28;20093;-60
2022/06/03 02:28:27;;;;;;;0.90;0.70;;;22.80;47.00;;;;;;5055631;28;20024;-61
2022/06/03 02:31:02;;;;;;;1.00;0.70;;;22.80;47.00;;;;;;5055448;28;20059;-63
2022/06/03 02:34:03;;;;;;;0.95;0.70;;;22.90;47.10;;;;;;5055718;28;20376;-63
2022/06/03 02:37:02;;;;;;;1.35;0.75;;;22.80;47.00;;;;;;5053801;28;20189;-59
2022/06/03 02:39:28;;;;;;;;;;;22.80;47.00;;;;;;5056264;28;20256;-58
2022/06/03 02:42:09;;;;;;;1.35;0.70;;;22.80;47.00;;;;;;5056790;28;20109;-65
2022/06/03 02:45:07;;;;;;;1.30;0.77;;;22.80;46.90;;;;;;5053503;28;20528;-59
2022/06/03 02:47:46;;;;;;;0.85;0.80;;;22.80;46.90;;;;;;5056321;28;20024;-60
2022/06/03 02:50:17;;;;;;;0.70;0.70;;;22.80;46.90;;;;;;5055432;28;20464;-64
2022/06/03 02:53:01;;;;;;;1.05;0.80;;;22.80;46.90;;;;;;5053780;28;20121;-59
2022/06/03 02:55:34;;;;;;;0.70;0.70;;;22.80;47.00;;;;;;5053736;28;20039;-58
2022/06/03 02:58:09;;;;;;;0.70;0.70;;;22.80;47.00;;;;;;5054826;28;20039;-63
2022/06/03 03:01:05;;;;;;;1.08;0.70;;;22.80;47.00;;;;;;5054119;28;20192;-64
2022/06/03 03:04:08;;;;;;;0.88;0.70;;;22.80;47.00;;;;;;5055696;28;20139;-60
2022/06/03 03:06:55;;;;;;;0.85;0.70;;;22.80;47.00;;;;;;5052860;28;20036;-60
2022/06/03 03:09:48;;;;;;;0.70;0.60;;;22.80;47.00;;;;;;5053710;28;20051;-63
2022/06/03 03:12:20;;;;;;;0.98;0.70;;;22.80;47.00;;;;;;5056317;28;20073;-63
2022/06/03 03:15:28;;;;;;;0.90;0.77;;;22.80;47.00;;;;;;5053864;28;20090;-64
2022/06/03 03:18:13;;;;;;;0.97;0.70;;;22.80;47.00;;;;;;5054433;28;20571;-60
2022/06/03 03:21:14;;;;;;;1.20;0.80;;;22.80;46.90;;;;;;5052899;28;20051;-62
2022/06/03 03:23:46;;;;;;;0.70;0.70;;;22.80;47.00;;;;;;5054385;28;20111;-63
2022/06/03 03:26:30;;;;;;;0.70;0.70;;;22.80;47.00;;;;;;5053967;28;20038;-64
2022/06/03 03:29:34;;;;;;;0.85;0.80;;;22.80;47.00;;;;;;5055657;28;20954;-62
2022/06/03 03:32:35;;;;;;;0.85;0.75;;;22.80;47.00;;;;;;5054436;28;20166;-60
2022/06/03 03:35:37;;;;;;;1.00;0.70;;;22.80;47.00;;;;;;4992799;28;20072;-61
2022/06/03 03:38:24;;;;;;;0.77;0.77;;;22.80;47.00;;;;;;5050732;28;20036;-61
2022/06/03 03:41:34;;;;;;;0.93;0.60;;;22.80;47.00;;;;;;5052386;28;20033;-63
2022/06/03 03:44:31;;;;;;;0.60;0.60;;;22.80;46.90;;;;;;4968486;28;20521;-63
2022/06/03 03:47:09;;;;;;;1.25;0.80;;;22.70;46.90;;;;;;4969312;28;20597;-60
2022/06/03 03:50:08;;;;;;;0.88;0.70;;;22.70;46.90;;;;;;5037791;28;20154;-59
2022/06/03 03:52:33;;;;;;;0.88;0.70;;;22.70;46.90;;;;;;5053738;28;20103;-59
2022/06/03 03:55:22;;;;;;;0.77;0.60;;;22.70;47.00;;;;;;5052596;28;20039;-64
2022/06/03 03:58:24;;;;;;;0.60;0.60;;;22.70;46.90;;;;;;5054414;28;20045;-64
2022/06/03 04:01:28;;;;;;;0.93;0.70;;;22.70;47.00;;;;;;5053966;28;20036;-63
2022/06/03 04:04:14;;;;;;;0.73;0.73;;;22.70;47.00;;;;;;5053815;28;20037;-62
2022/06/03 04:07:16;;;;;;;0.93;0.70;;;22.70;47.00;;;;;;5051373;28;20131;-58
2022/06/03 04:10:12;;;;;;;0.52;0.52;;;22.70;47.00;;;;;;5052738;28;20059;-60
2022/06/03 04:12:50;;;;;;;0.70;0.60;;;22.70;47.00;;;;;;5054569;28;20630;-66
2022/06/03 04:15:38;;;;;;;0.60;0.60;;;22.70;47.00;;;;;;5053046;28;20172;-61
2022/06/03 04:18:41;;;;;;;0.93;0.57;;;22.70;47.00;;;;;;5055288;28;20044;-59
2022/06/03 04:21:35;;;;;;;0.80;0.60;;;22.70;47.00;;;;;;5050593;28;20028;-62
2022/06/03 04:24:25;;;;;;;0.80;0.60;;;22.70;47.00;;;;;;5052539;28;20029;-61
2022/06/03 04:27:30;;;;;;;0.60;0.60;;;22.60;46.90;;;;;;5054891;28;20029;-64
2022/06/03 04:30:31;;;;;;;0.80;0.70;;;22.60;47.00;;;;;;5055333;28;20024;-58
2022/06/03 04:33:28;;;;;;;0.63;0.63;;;22.60;47.00;;;;;;5053968;28;20408;-61
2022/06/03 04:36:27;;;;;;;0.93;0.65;;;22.70;47.00;;;;;;5053425;28;20036;-63
2022/06/03 04:39:11;;;;;;;;;;;22.60;47.00;;;;;;5055249;28;20474;-64
2022/06/03 04:41:55;;;;;;;0.93;0.77;;;22.60;47.00;;;;;;5052633;28;19913;-59
2022/06/03 04:44:58;;;;;;;0.60;0.60;;;22.60;47.00;;;;;;5053704;28;20031;-62
2022/06/03 04:48:02;;;;;;;0.75;0.75;;;22.60;47.00;;;;;;5054350;28;20036;-58
2022/06/03 04:50:27;;;;;;;0.77;0.70;;;22.60;47.00;;;;;;5041548;28;20124;-61
2022/06/03 04:53:14;;;;;;;0.77;0.75;;;22.60;47.00;;;;;;5056380;28;20470;-58
2022/06/03 04:56:09;;;;;;;0.75;0.70;;;22.60;47.00;;;;;;5055902;28;20116;-63
2022/06/03 04:58:59;;;;;;;1.08;0.70;;;22.60;47.00;;;;;;5016241;28;20052;-62
2022/06/03 05:01:56;;;;;;;0.80;0.70;;;22.60;47.00;;;;;;5056372;28;20039;-59
2022/06/03 05:04:56;;;;;;;0.80;0.63;;;22.60;47.00;;;;;;5047700;28;20029;-64
2022/06/03 05:07:21;;;;;;;0.73;0.70;;;22.60;47.00;;;;;;5054540;28;20032;-64
2022/06/03 05:10:05;;;;;;;0.60;0.60;;;22.60;47.00;;;;;;5053474;28;20065;-60
2022/06/03 05:13:08;;;;;;;0.88;0.70;;;22.60;47.00;;;;;;5055295;28;20033;-58
2022/06/03 05:15:49;;;;;;;0.70;0.70;;;22.60;47.00;;;;;;5056737;28;20047;-61
2022/06/03 05:18:36;;;;;;;0.70;0.70;;;22.60;47.00;;;;;;5058235;28;20032;-58
2022/06/03 05:21:48;;;;;;;0.57;0.57;;;22.60;47.00;;;;;;5056077;28;20532;-61
2022/06/03 05:24:51;;;;;;;0.60;0.60;;;22.60;47.00;;;;;;5055041;28;20146;-59
2022/06/03 05:27:43;;;;;;;0.93;0.65;;;22.60;47.00;;;;;;5057060;28;20036;-63
2022/06/03 05:30:24;;;;;;;0.70;0.70;;;22.60;47.00;;;;;;5057111;28;20702;-63
2022/06/03 05:33:11;;;;;;;0.88;0.80;;;22.60;47.00;;;;;;5056360;28;20032;-59
2022/06/03 05:36:01;;;;;;;0.77;0.68;;;22.60;47.00;;;;;;5056011;28;20552;-58
2022/06/03 05:38:49;;;;;;;1.20;0.70;;;22.60;47.00;;;;;;5055472;28;20033;-63
2022/06/03 05:44:43;;;;;;;0.60;0.60;;;22.60;47.00;;;;;;5057338;28;20055;-60
2022/06/03 05:47:12;;;;;;;0.80;0.65;;;22.60;47.00;;;;;;5056391;28;20128;-61
2022/06/03 05:49:50;;;;;;;0.60;0.60;;;22.60;47.00;;;;;;5057485;28;20050;-64
2022/06/03 05:52:41;;;;;;;0.90;0.70;;;22.60;47.00;;;;;;5053740;28;20108;-60
2022/06/03 05:55:07;;;;;;;0.70;0.70;;;22.60;47.00;;;;;;5054506;28;20607;-63
2022/06/03 05:57:42;;;;;;;0.68;0.68;;;22.50;46.90;;;;;;5056013;28;20119;-59
2022/06/03 06:00:38;;;;;;;0.80;0.70;;;22.60;47.00;;;;;;5055831;28;20067;-59
2022/06/03 06:03:22;;;;;;;1.05;0.70;;;22.60;47.00;;;;;;5057520;28;20123;-60
2022/06/03 06:06:10;;;;;;;0.70;0.70;;;22.50;46.90;;;;;;5054437;28;20024;-61
2022/06/03 06:09:00;;;;;;;0.95;0.80;;;22.50;46.90;;;;;;5056058;28;20039;-65
2022/06/03 06:11:44;;;;;;;0.80;0.60;;;22.50;47.00;;;;;;5056066;28;20067;-63
2022/06/03 06:14:47;;;;;;;0.68;0.60;;;22.50;46.90;;;;;;5055798;28;20029;-59
2022/06/03 06:17:21;;;;;;;1.10;0.70;;;22.50;47.00;;;;;;5054824;28;20033;-58
2022/06/03 06:19:54;;;;;;;0.77;0.70;;;22.50;47.00;;;;;;5056318;28;20031;-63
2022/06/03 06:22:46;;;;;;;0.63;0.63;;;22.50;47.00;;;;;;5054202;28;20058;-61
2022/06/03 06:25:37;;;;;;;0.75;0.70;;;22.50;47.00;;;;;;5054657;28;20074;-64
2022/06/03 06:28:18;;;;;;;1.00;0.80;;;22.50;47.00;;;;;;5056529;28;20130;-63
2022/06/03 06:30:56;;;;;;;1.23;0.70;;;22.50;47.00;;;;;;5055384;28;20033;-59
2022/06/03 06:33:53;;;;;;;0.70;0.70;;;22.50;47.00;;;;;;5055966;28;20032;-59
2022/06/03 06:36:30;;;;;;;1.00;0.73;;;22.50;47.00;;;;;;5039951;28;20052;-61
2022/06/03 06:39:03;;;;;;;0.70;0.70;;;22.50;47.00;;;;;;5054685;28;20028;-57
2022/06/03 06:41:35;;;;;;;0.70;0.63;;;22.50;47.10;;;;;;5054398;28;20050;-62
2022/06/03 06:44:31;;;;;;;0.70;0.70;;;22.50;47.10;;;;;;5055589;28;20024;-59
2022/06/03 06:47:30;;;;;;;0.60;0.60;;;22.50;47.00;;;;;;5055327;28;20503;-64
2022/06/03 06:50:08;;;;;;;1.05;0.68;;;22.50;47.10;;;;;;5037387;28;20045;-62
2022/06/03 06:52:54;;;;;;;1.15;0.80;;;22.50;47.10;;;;;;5053669;28;20029;-58
2022/06/03 06:55:51;;;;;;;0.88;0.80;;;22.50;47.10;;;;;;5053019;28;20036;-62
2022/06/03 06:58:29;;;;;;;1.73;0.70;;;22.50;47.10;;;;;;5055010;28;20029;-60
2022/06/03 07:00:59;;;;;;;1.67;0.60;;;22.50;47.10;;;;;;5053680;28;20087;-64
2022/06/03 07:03:55;;;;;;;0.65;0.65;;;22.50;47.10;;;;;;5055701;28;20036;-61
2022/06/03 07:06:34;;;;;;;1.15;0.80;;;22.50;47.10;;;;;;5013830;28;20036;-63
2022/06/03 07:09:11;;;;;;;0.60;0.60;;;22.50;47.10;;;;;;5053871;28;20025;-64
2022/06/03 07:12:06;;;;;;;1.20;0.80;;;22.50;47.10;;;;;;5054518;28;20094;-60
2022/06/03 07:14:39;;;;;;;1.10;0.90;;;22.50;47.10;;;;;;5038641;28;20478;-59
2022/06/03 07:20:10;;;;;;;0.70;0.70;;;22.50;47.10;;;;;;5054318;28;20094;-63
2022/06/03 07:22:58;;;;;;;0.68;0.60;;;22.50;47.10;;;;;;5052347;28;20028;-61
2022/06/03 07:25:35;;;;;;;0.80;0.63;;;22.40;47.10;;;;;;5054803;28;20803;-63
2022/06/03 07:28:06;;;;;;;1.48;0.70;;;22.50;47.10;;;;;;5053942;28;20039;-61
2022/06/03 07:30:47;;;;;;;0.60;0.60;;;22.50;47.10;;;;;;5054452;28;20048;-60
2022/06/03 07:33:21;;;;;;;1.08;0.80;;;22.50;47.10;;;;;;5055015;28;20124;-61
2022/06/03 07:36:08;;;;;;;0.60;0.60;;;22.50;47.10;;;;;;5052934;28;20126;-63
2022/06/03 07:38:36;;;;;;;0.93;0.68;;;22.50;47.10;;;;;;5054174;28;20032;-60
2022/06/03 07:41:17;;;;;;;0.80;0.67;;;22.40;47.10;;;;;;5054925;28;20038;-64
2022/06/03 07:43:55;;;;;;;0.60;0.60;;;22.50;47.10;;;;;;5054714;28;20119;-61
2022/06/03 07:46:37;;;;;;;0.70;0.70;;;22.50;47.10;;;;;;5054282;28;20104;-58
2022/06/03 07:49:04;;;;;;;0.98;0.75;;;22.40;47.10;;;;;;5055059;28;20051;-57
2022/06/03 07:51:37;;;;;;;0.60;0.60;;;22.50;47.20;;;;;;5052574;28;20681;-61
2022/06/03 07:54:31;;;;;;;0.60;0.60;;;22.50;47.10;;;;;;5052958;28;20752;-63
2022/06/03 07:57:01;;;;;;;0.80;0.75;;;22.50;47.10;;;;;;5053708;28;20139;-63
2022/06/03 07:59:32;;;;;;;0.70;0.60;;;22.50;47.10;;;;;;5055495;28;20439;-63
2022/06/03 08:02:19;;;;;;;0.70;0.70;;;22.40;47.10;;;;;;5052833;28;20044;-57
2022/06/03 08:04:48;;;;;;;0.65;0.65;;;22.50;47.10;;;;;;5053733;28;20652;-63
2022/06/03 08:13:03;;;;;;;0.93;0.70;;;22.50;47.20;;;;;;5052909;28;20079;-58
2022/06/03 08:15:33;;;;;;;0.90;0.70;;;22.50;47.20;;;;;;5054087;28;20036;-61
2022/06/03 08:18:02;;;;;;;0.73;0.65;;;22.40;47.10;;;;;;5046950;28;20043;-58
2022/06/03 08:20:29;;;;;;;0.90;0.80;;;22.50;47.20;;;;;;5053153;28;20036;-60
2022/06/03 08:22:55;;;;;;;0.73;0.73;;;22.50;47.20;;;;;;5054287;28;20108;-59
2022/06/03 08:25:27;;;;;;;0.75;0.73;;;22.50;47.20;;;;;;5055878;28;20088;-61
2022/06/03 08:27:55;;;;;;;0.95;0.85;;;22.50;47.20;;;;;;5057788;28;20028;-64
2022/06/03 08:30:24;;;;;;;0.75;0.60;;;22.50;47.20;;;;;;5053613;28;20029;-64
2022/06/03 08:32:58;;;;;;;0.98;0.75;;;22.50;47.20;;;;;;5056622;28;20036;-63
2022/06/03 08:35:26;;;;;;;1.30;0.70;;;22.40;47.10;;;;;;5049962;28;20092;-61
2022/06/03 08:38:05;;;;;;;1.00;0.70;;;22.50;47.20;;;;;;5054369;28;20559;-59
2022/06/03 08:40:54;;;;;;;0.70;0.60;;;22.50;47.20;;;;;;5055134;28;20083;-60
2022/06/03 08:43:54;;;;;;;0.70;0.60;;;22.50;47.20;;;;;;5055280;28;20047;-63
2022/06/03 08:46:34;;;;;;;;;;;22.50;47.10;;;;;;5056585;28;20051;-59
2022/06/03 08:49:02;;;;;;;0.90;0.70;;;22.50;47.10;;;;;;5055502;28;20013;-63
2022/06/03 08:52:00;;;;;;;0.80;0.70;;;22.50;47.20;;;;;;5052730;28;20131;-64
2022/06/03 08:54:35;;;;;;;1.65;0.70;;;22.50;47.20;;;;;;5039777;28;20051;-58
2022/06/03 08:57:08;;;;;;;0.70;0.70;;;22.50;47.20;;;;;;5054050;28;20028;-58
2022/06/03 08:59:52;;;;;;;0.80;0.70;;;22.40;47.20;;;;;;5054119;28;20122;-61
2022/06/03 09:02:30;;;;;;;1.15;0.60;;;22.40;47.20;;;;;;5052696;28;20488;-62
2022/06/03 09:05:10;;;;;;;0.80;0.70;;;22.50;47.30;;;;;;5053273;28;20199;-60
2022/06/03 09:07:47;;;;;;;0.70;0.70;;;22.50;47.30;;;;;;5054084;28;20033;-59
2022/06/03 09:10:24;;;;;;;0.70;0.70;;;22.50;47.30;;;;;;5056032;28;20446;-60
2022/06/03 09:13:09;;;;;;;0.60;0.60;;;22.50;47.30;;;;;;5056379;28;20016;-58
2022/06/03 09:15:39;;;;;;;0.70;0.70;;;22.50;47.20;;;;;;5038086;28;20097;-59
2022/06/03 09:18:28;;;;;;;0.50;0.50;;;22.50;47.20;;;;;;5056041;28;20036;-58
2022/06/03 09:21:11;;;;;;;1.13;0.73;;;22.50;47.20;;;;;;5053874;28;20032;-64
2022/06/03 09:23:42;;;;;;;0.73;0.60;;;22.50;47.10;;;;;;5052716;28;20036;-62
2022/06/03 09:26:18;;;;;;;1.05;0.70;;;22.50;47.10;;;;;;5052787;28;20077;-59
2022/06/03 09:28:44;;;;;;;0.60;0.60;;;22.50;47.20;;;;;;5038484;28;20118;-59
2022/06/03 09:31:13;;;;;;;0.95;0.75;;;22.50;47.10;;;;;;5054338;28;20153;-57
2022/06/03 09:33:41;;;;;;;0.63;0.60;;;22.50;47.10;;;;;;5053760;28;20032;-63
2022/06/03 09:36:13;;;;;;;0.73;0.70;;;22.50;47.10;;;;;;5052002;28;20040;-62
2022/06/03 09:39:08;;;;;;;0.80;0.80;;;22.50;47.10;;;;;;5054411;28;20036;-60
2022/06/03 09:41:43;;;;;;;0.88;0.80;;;22.50;47.10;;;;;;5052798;28;21767;-59
2022/06/03 09:44:12;;;;;;;0.70;0.70;;;22.50;47.10;;;;;;5052057;28;20043;-63
2022/06/03 09:46:39;;;;;;;0.90;0.80;;;22.50;47.10;;;;;;5053563;28;20028;-63
2022/06/03 09:49:06;;;;;;;0.60;0.60;;;22.50;47.10;;;;;;5054383;28;20028;-61
2022/06/03 09:54:34;;;;;;;0.82;0.70;;;22.50;47.10;;;;;;5049768;28;20825;-63
2022/06/03 09:57:07;;;;;;;0.60;0.60;;;22.50;47.10;;;;;;5052458;28;20083;-64
2022/06/03 09:59:36;;;;;;;0.60;0.60;;;22.50;47.10;;;;;;5056206;28;20403;-59
2022/06/03 10:02:03;;;;;;;0.60;0.60;;;22.50;47.10;;;;;;5053736;28;20097;-62
2022/06/03 10:04:28;;;;;;;1.25;0.80;;;22.50;47.60;;;;;;5053634;28;20040;-63
2022/06/03 10:06:55;;;;;;;0.70;0.70;;;22.50;47.10;;;;;;5052764;28;20570;-61
2022/06/03 10:18:03;;;;;;;0.70;0.70;;;22.60;47.50;;;;;;5054276;28;20118;-57
2022/06/03 10:20:29;;;;;;;0.93;0.70;;;22.60;47.60;;;;;;5054829;28;20035;-63
2022/06/03 10:22:55;;;;;;;1.23;0.80;;;22.60;47.70;;;;;;5054470;28;20480;-61
2022/06/03 10:25:21;;;;;;;1.10;0.80;;;22.60;47.80;;;;;;5054154;28;20161;-62
2022/06/03 10:27:47;;;;;;;0.80;0.80;;;22.60;47.90;;;;;;5054402;28;20134;-62
2022/06/03 10:30:29;;;;;;;2.25;0.90;;;22.60;47.90;;;;;;5053639;28;20958;-62
2022/06/03 10:32:55;;;;;;;1.70;0.80;;;22.60;48.10;;;;;;5049477;28;20192;-63
2022/06/03 10:35:26;;;;;;;0.85;0.82;;;22.60;48.10;;;;;;5051247;28;20079;-62
2022/06/03 10:38:03;;;;;;;0.82;0.70;;;22.60;48.00;;;;;;5052080;28;20035;-58
2022/06/03 10:40:30;;;;;;;1.55;0.77;;;22.60;48.10;;;;;;5053972;28;20098;-63
2022/06/03 10:42:58;;;;;;;0.90;0.70;;;22.60;48.00;;;;;;5053709;28;20475;-58
2022/06/03 10:45:32;;;;;;;0.80;0.75;;;22.70;48.00;;;;;;5052419;28;20036;-63
2022/06/03 10:47:58;;;;;;;0.85;0.73;;;22.60;48.00;;;;;;5053984;28;20530;-59
2022/06/03 10:50:34;;;;;;;1.05;0.80;;;22.60;48.00;;;;;;5054371;28;20028;-63
2022/06/03 11:01:45;;;;;;;1.00;0.70;;;22.70;48.00;;;;;;5051979;28;20097;-59
2022/06/03 11:04:37;;;;;;;0.60;0.60;;;22.70;48.00;;;;;;5052619;28;20559;-63
2022/06/03 11:07:25;;;;;;;0.98;0.70;;;22.70;48.00;;;;;;5044027;28;21219;-63
2022/06/03 11:09:59;;;;;;;0.68;0.68;;;22.70;48.00;;;;;;5052891;28;20115;-63
2022/06/03 11:12:28;;;;;;;0.70;0.70;;;22.70;48.00;;;;;;5053421;28;21916;-64
2022/06/03 11:14:54;;;;;;;0.88;0.80;;;22.70;48.00;;;;;;5054854;28;20065;-59
2022/06/03 11:17:33;;;;;;;0.88;0.70;;;22.70;48.00;;;;;;5052202;28;20144;-63
2022/06/03 11:19:59;;;;;;;1.02;0.63;;;22.70;48.10;;;;;;5053295;28;20032;-61
2022/06/03 11:22:29;;;;;;;0.90;0.70;;;22.70;48.00;;;;;;5050938;28;20143;-59
2022/06/03 11:25:18;;;;;;;1.40;0.90;;;22.70;48.10;;;;;;5050595;28;20028;-60
2022/06/03 11:28:04;;;;;;;0.80;0.80;;;22.80;48.10;;;;;;5053180;28;20019;-58
2022/06/03 11:30:43;;;;;;;0.63;0.63;;;22.80;48.10;;;;;;5054003;28;20047;-59
2022/06/03 11:33:15;;;;;;;1.08;0.80;;;22.80;48.10;;;;;;5052717;28;20525;-62
2022/06/03 11:35:46;;;;;;;1.08;0.90;;;22.80;48.10;;;;;;5052016;28;20065;-63
2022/06/03 11:38:17;;;;;;;0.95;0.80;;;22.80;48.10;;;;;;5052493;28;20424;-59
2022/06/03 11:40:51;;;;;;;1.10;0.73;;;22.80;48.10;;;;;;5053168;28;20068;-62
2022/06/03 11:43:50;;;;;;;0.95;0.80;;;22.80;48.10;;;;;;5051340;28;20028;-62
2022/06/03 11:46:22;;;;;;;1.10;0.80;;;22.80;48.10;;;;;;5046612;28;20052;-59
2022/06/03 11:48:50;;;;;;;1.20;0.77;;;22.80;48.10;;;;;;5052791;28;20024;-60
2022/06/03 11:51:15;;;;;;;1.10;0.80;;;22.80;48.10;;;;;;5050533;28;20127;-63
2022/06/03 11:53:48;;;;;;;0.98;0.80;;;22.80;48.10;;;;;;5048650;28;20066;-59
2022/06/03 11:56:17;;;;;;;0.80;0.80;;;22.80;48.20;;;;;;5052290;28;20764;-60
2022/06/03 11:59:10;;;;;;;0.77;0.70;;;22.80;48.10;;;;;;5056661;28;20035;-60
2022/06/03 12:01:50;;;;;;;0.93;0.70;;;22.80;48.10;;;;;;5055011;28;20040;-61
2022/06/03 12:04:31;;;;;;;1.00;0.90;;;22.90;48.10;;;;;;5049518;28;20037;-62
2022/06/03 12:07:26;;;;;;;1.25;0.82;;;22.80;48.10;;;;;;5053543;28;20032;-61
2022/06/03 12:10:15;;;;;;;1.00;0.80;;;22.80;48.10;;;;;;5055637;28;20033;-62
2022/06/03 12:15:42;;;;;;;0.80;0.75;;;22.90;48.10;;;;;;5055465;28;20079;-61
2022/06/03 12:18:09;;;;;;;0.85;0.70;;;22.90;48.10;;;;;;5056667;28;20552;-61
2022/06/03 12:20:37;;;;;;;1.05;0.80;;;22.90;48.10;;;;;;5039628;28;20443;-63
2022/06/03 12:23:11;;;;;;;1.10;0.80;;;22.90;48.10;;;;;;5054931;28;20028;-62
2022/06/03 12:25:54;;;;;;;1.23;0.90;;;22.90;48.10;;;;;;5053097;28;20081;-60
2022/06/03 12:28:22;;;;;;;1.80;0.90;;;22.90;48.10;;;;;;5055357;28;20024;-61
2022/06/03 12:30:56;;;;;;;1.05;0.90;;;22.90;48.20;;;;;;5054754;28;20119;-63
2022/06/03 12:33:45;;;;;;;1.02;0.80;;;22.90;48.20;;;;;;5055417;28;20103;-61
2022/06/03 12:36:35;;;;;;;0.90;0.88;;;22.90;48.30;;;;;;5052520;28;20064;-59
2022/06/03 12:39:01;;;;;;;1.05;0.73;;;23.00;48.30;;;;;;5052866;28;20024;-60
2022/06/03 12:41:44;;;;;;;0.70;0.70;;;23.00;48.30;;;;;;5055939;28;20032;-58
2022/06/03 12:44:48;;;;;;;0.80;0.80;;;23.00;48.30;;;;;;5054369;28;20112;-61
2022/06/03 12:47:24;;;;;;;1.42;0.80;;;23.00;48.40;;;;;;4970295;28;20045;-59
2022/06/03 12:49:57;;;;;;;0.98;0.70;;;23.00;48.40;;;;;;5045839;28;20155;-63
2022/06/03 12:52:26;;;;;;;1.45;0.73;;;23.00;48.50;;;;;;5051187;28;20686;-64
2022/06/03 12:55:23;;;;;;;1.23;0.80;;;23.00;48.50;;;;;;5053199;28;20754;-61
2022/06/03 12:57:58;;;;;;;1.85;0.98;;;23.10;48.60;;;;;;5055994;28;20127;-58
2022/06/03 13:00:48;;;;;;;0.85;0.77;;;23.10;48.60;;;;;;5055154;28;20851;-60
2022/06/03 13:03:17;;;;;;;0.85;0.60;;;23.10;48.60;;;;;;5054716;28;20029;-57
2022/06/03 13:05:48;;;;;;;1.45;0.80;;;23.10;48.60;;;;;;5055100;28;20110;-62
2022/06/03 13:08:26;;;;;;;1.10;0.80;;;23.00;48.60;;;;;;5051540;28;20660;-60
2022/06/03 13:10:53;;;;;;;1.10;0.80;;;23.10;48.60;;;;;;5053048;28;20048;-59
2022/06/03 13:13:33;;;;;;;1.20;0.70;;;23.10;48.60;;;;;;5053147;28;20032;-63
2022/06/03 13:16:17;;;;;;;;;;;23.10;48.60;;;;;;5054067;28;20043;-61
2022/06/03 13:18:46;;;;;;;0.70;0.70;;;23.10;48.70;;;;;;5052929;28;19931;-58
2022/06/03 13:21:15;;;;;;;0.90;0.80;;;23.10;48.60;;;;;;5051938;28;20051;-60
2022/06/03 13:23:47;;;;;;;;;;;23.10;48.70;;;;;;5053377;28;20503;-59
2022/06/03 13:26:21;;;;;;;1.00;0.80;;;23.10;48.70;;;;;;5052813;28;19916;-58
2022/06/03 13:28:55;;;;;;;0.85;0.75;;;23.10;48.70;;;;;;5054612;28;20036;-57
2022/06/03 13:31:20;;;;;;;0.90;0.75;;;23.20;48.80;;;;;;5052972;28;20032;-62
2022/06/03 13:34:10;;;;;;;0.73;0.73;;;23.20;48.80;;;;;;5052919;28;20052;-63
2022/06/03 13:36:51;;;;;;;1.42;0.90;;;23.10;48.70;;;;;;5051632;28;20032;-61
2022/06/03 13:39:23;;;;;;;0.60;0.60;;;23.20;48.80;;;;;;5054326;28;20033;-58
2022/06/03 13:44:53;;;;;;;0.77;0.70;;;23.20;48.80;;;;;;5055167;28;20079;-59
2022/06/03 13:47:19;;;;;;;0.80;0.80;;;23.20;48.80;;;;;;5055161;28;20116;-64
2022/06/03 13:49:53;;;;;;;0.90;0.80;;;23.20;48.80;;;;;;5056079;28;20052;-61
2022/06/03 13:52:24;;;;;;;1.27;0.77;;;23.20;48.80;;;;;;5050789;28;20123;-61
2022/06/03 13:54:54;;;;;;;1.25;0.80;;;23.20;48.80;;;;;;5053355;28;20108;-64
2022/06/03 13:57:22;;;;;;;1.40;0.88;;;23.20;49.30;;;;;;5055146;28;21267;-63
2022/06/03 13:59:48;;;;;;;1.05;0.80;;;23.20;48.80;;;;;;5054483;28;20025;-59
2022/06/03 14:02:35;;;;;;;1.65;0.90;;;23.30;48.80;;;;;;5053765;28;20779;-58
2022/06/03 14:05:13;;;;;;;1.30;0.80;;;23.30;48.90;;;;;;5052438;28;20039;-61
2022/06/03 14:07:41;;;;;;;1.10;0.80;;;23.30;48.80;;;;;;5054078;28;20052;-63
2022/06/03 14:10:16;;;;;;;1.00;0.70;;;23.30;48.80;;;;;;5053336;28;20036;-59
2022/06/03 14:13:17;;;;;;;0.70;0.70;;;23.30;48.80;;;;;;5056191;28;20028;-63
2022/06/03 14:15:56;;;;;;;0.93;0.80;;;23.30;48.90;;;;;;5054973;28;20043;-60
2022/06/03 14:19:21;;;;;;;1.27;0.70;;;23.30;48.80;;;;;;5052722;28;20139;-63
2022/06/03 14:21:50;;;;;;;1.23;0.80;;;23.30;48.90;;;;;;4964719;28;20077;-64
2022/06/03 14:24:34;;;;;;;0.85;0.80;;;23.40;48.90;;;;;;4965963;28;20057;-59
2022/06/03 14:26:59;;;;;;;1.27;0.90;;;23.30;48.90;;;;;;5031198;28;20464;-59
2022/06/03 14:29:33;;;;;;;1.10;0.90;;;23.30;48.80;;;;;;5055015;28;20032;-60
2022/06/03 14:32:08;;;;;;;0.80;0.80;;;23.40;48.90;;;;;;5052280;28;20040;-60
2022/06/03 14:34:49;;;;;;;1.10;1.00;;;23.40;49.00;;;;;;5053129;28;20044;-63
2022/06/03 14:37:34;;;;;;;1.13;0.80;;;23.30;49.00;;;;;;5052251;28;20048;-63
2022/06/03 14:40:06;;;;;;;1.17;0.90;;;23.40;49.00;;;;;;5053870;28;20039;-58